aviador You're here:

TIST Decoded Metar

ST. THOMAS in VIRGIN ISL.
Report Time2017-03-23 04:00:00
UTC Time2017-03-23 04:12:49
Flight Rules vfr VFR
Wind090° at 08 kt
W.Decomp.*RWY 10: 8.0 kt HW 0.4 kt RCW
W.Rank090° ranks 1
Current wind is below 090° avg. (8.4)
Visibility9999 m
Phenomena:N/A
Clouds:Few 023 Hf
Broken 055 Hf
Overcast 100 Hf
Expected CloudBase > 400 ft AGL from Temp-Dew spread
Ceiling5,500 ft
Temp24°C (ISA +9)
Dew Point23°C (94% RH)
QNH1016 hPa
Density Alt1,339 ft
Elevation23 ft
Report Wrong Elevation
Raw Report
METAR TIST 230400Z 09008KT 10SM FEW023 BKN055 OVC100 24/23 A2999 RMK
AO2 RAE0354 P0000 T02440233=

Extra information for TIST:More info

Metar Taf Metar & Taf Last 4 Metars F.Rules Stats Wind Profile Meteogram Temp Stats Airport Information Weather charts Add Link Nearby VenuesMetar ALERT Operation Metar Decoded Social comments